OISL  Lar  Airport

Lar, Iran

Add Bookmark
ICAO OISL
IATA LRR
Type Airport
Status Operational
Latitude
27° 40' 28" N
27.674700
Longitude
54° 22' 59" E
54.383301
Local (DST + 5) UTC (GMT + 4)
Jul 8, 2015 06:51 Jul 8, 2015 02:21
Sunrise-Sunset Local UTC
Begin Civil Twilight 05:35 01:05
Sunrise 06:01 01:31
Sunset 07:53 15:23
End Civil Twilight 08:19 15:49
VFR
VFR
MVFR
MVFR
IFR
IFR
LIFR
LIFR
Unknown
Unavailable

Current Weather

METAR Observed VFR
OISL 080200Z 00000KT CAVOK 29/09 Q1001 Wed, Jul 8, 2015 @ 02:00 UTC
(21 Minutes ago)
Visual Flight Rules
Wind Visibility Conditions
Calm 10 km or more
  • No significant weather
Temperatures Readings Precipitation
Current Temp
29°C
84°F
Dewpoint
9°C
48°F
Humidity 29%
Altimeter 29.56" Hg
Sea Level Pressure 1,001 mb
Field Elevation
805 m
2,641 ft
None Recorded
-
-

CheckWX.com is intended as a tool to help pilots better visualize weather data. It is not intended as a substitute for an official weather briefing obtained from a Flight Service Station. CheckWX.com does not meet the FAA requirements for an official pre-flight weather briefing. Therefore, it's important that pilots still call and obtain an official FSS pre-flight weather briefing.

© 2007-2015 CheckWX.com
02:21:36 UTC